createdAt,value
2017-04-03T00:01:19.879Z,0
2017-04-03T00:03:43.462Z,0
2017-04-03T00:06:06.908Z,0
2017-04-03T00:08:30.385Z,0
2017-04-03T00:12:55.250Z,0
2017-04-03T00:15:18.842Z,0
2017-04-03T00:17:25.642Z,0
2017-04-03T00:19:49.206Z,0
2017-04-03T00:22:12.770Z,0
2017-04-03T00:24:37.058Z,0
2017-04-03T00:26:52.108Z,0
2017-04-03T00:31:17.603Z,0
2017-04-03T00:33:41.174Z,0
2017-04-03T00:36:04.909Z,0
2017-04-03T00:38:28.375Z,0
2017-04-03T00:40:51.798Z,0
2017-04-03T00:43:15.394Z,0
2017-04-03T00:45:38.770Z,0
2017-04-03T00:48:02.235Z,0
2017-04-03T00:50:25.693Z,0
2017-04-03T00:52:49.285Z,0
2017-04-03T00:57:22.984Z,0
2017-04-03T00:59:46.530Z,0
2017-04-03T01:02:09.927Z,0
2017-04-03T01:04:33.428Z,0
2017-04-03T01:06:56.951Z,0
2017-04-03T01:09:20.588Z,0
2017-04-03T01:11:43.904Z,0
2017-04-03T01:14:07.588Z,0
2017-04-03T01:16:30.828Z,0
2017-04-03T01:18:54.259Z,0
2017-04-03T01:21:09.387Z,0
2017-04-03T01:23:32.873Z,0
2017-04-03T01:25:56.390Z,0
2017-04-03T01:28:19.880Z,0
2017-04-03T01:30:43.326Z,0
2017-04-03T01:33:06.848Z,0
2017-04-03T01:35:30.235Z,0
2017-04-03T01:37:53.763Z,0
2017-04-03T01:40:17.547Z,0
2017-04-03T01:42:40.877Z,0
2017-04-03T01:45:04.423Z,0
2017-04-03T01:47:28.044Z,0
2017-04-03T01:49:51.583Z,0
2017-04-03T01:52:15.306Z,0
2017-04-03T01:54:38.955Z,0
2017-04-03T01:57:02.175Z,0
2017-04-03T01:59:25.691Z,0
2017-04-03T02:01:49.272Z,0
2017-04-03T02:04:12.814Z,0
2017-04-03T02:06:36.375Z,0
2017-04-03T02:08:59.942Z,0
2017-04-03T02:11:23.525Z,0
2017-04-03T02:13:47.053Z,0
2017-04-03T02:16:02.146Z,0
2017-04-03T02:18:25.637Z,0
2017-04-03T02:20:49.301Z,0
2017-04-03T02:23:12.665Z,0
2017-04-03T02:25:36.130Z,0
2017-04-03T02:27:59.688Z,0
2017-04-03T02:30:23.194Z,0
2017-04-03T02:32:46.641Z,0
2017-04-03T02:35:10.195Z,0
2017-04-03T02:39:43.840Z,0
2017-04-03T02:42:07.390Z,0
2017-04-03T02:44:31.082Z,0
2017-04-03T02:46:54.449Z,0
2017-04-03T02:49:17.925Z,0
2017-04-03T02:51:41.357Z,0
2017-04-03T02:54:04.815Z,0
2017-04-03T02:56:28.525Z,0
2017-04-03T02:58:51.770Z,0
2017-04-03T03:01:15.232Z,0
2017-04-03T03:03:38.724Z,0
2017-04-03T03:06:02.192Z,0
2017-04-03T03:08:25.635Z,0
2017-04-03T03:10:49.146Z,0
2017-04-03T03:13:12.576Z,0
2017-04-03T03:15:27.633Z,0
2017-04-03T03:17:34.312Z,0
2017-04-03T03:19:57.769Z,0
2017-04-03T03:24:22.550Z,0
2017-04-03T03:26:46.057Z,0
2017-04-03T03:29:09.614Z,0
2017-04-03T03:31:33.181Z,0
2017-04-03T03:33:56.766Z,0
2017-04-03T03:36:21.343Z,0
2017-04-03T03:38:44.630Z,0
2017-04-03T03:41:08.281Z,0
2017-04-03T03:43:31.715Z,0
2017-04-03T03:45:55.193Z,0
2017-04-03T03:48:18.658Z,0
2017-04-03T03:50:41.953Z,0
2017-04-03T03:53:05.440Z,0
2017-04-03T03:55:28.903Z,0
2017-04-03T03:57:52.374Z,0
2017-04-03T04:00:16.050Z,0
2017-04-03T04:02:39.414Z,0
2017-04-03T04:05:02.868Z,0
2017-04-03T04:07:26.311Z,0
2017-04-03T04:09:49.813Z,0
2017-04-03T04:12:13.290Z,0
2017-04-03T04:14:36.758Z,0
2017-04-03T04:19:10.457Z,0
2017-04-03T04:21:34.289Z,0
2017-04-03T04:23:57.574Z,0
2017-04-03T04:26:20.949Z,0
2017-04-03T04:28:44.631Z,0
2017-04-03T04:31:07.914Z,0
2017-04-03T04:33:31.345Z,0
2017-04-03T04:35:54.990Z,0
2017-04-03T04:38:19.559Z,0
2017-04-03T04:40:42.845Z,0
2017-04-03T04:43:06.437Z,0
2017-04-03T04:45:29.634Z,0
2017-04-03T04:47:53.299Z,0
2017-04-03T04:50:17.009Z,0
2017-04-03T04:52:40.399Z,0
2017-04-03T04:55:03.919Z,0
2017-04-03T04:57:27.198Z,0
2017-04-03T04:59:50.545Z,0
2017-04-03T05:02:14.017Z,0
2017-04-03T05:04:37.490Z,0
2017-04-03T05:07:00.954Z,0
2017-04-03T05:09:24.479Z,0
2017-04-03T05:11:47.855Z,0
2017-04-03T05:14:11.355Z,0
2017-04-03T05:16:34.824Z,0
2017-04-03T05:18:58.647Z,0
2017-04-03T05:21:21.955Z,0
2017-04-03T05:23:45.444Z,0
2017-04-03T05:26:08.929Z,5
2017-04-03T05:28:32.411Z,5
2017-04-03T05:30:55.918Z,5
2017-04-03T05:33:19.297Z,5
2017-04-03T05:35:42.830Z,10
2017-04-03T05:38:06.378Z,10
2017-04-03T05:40:29.846Z,15
2017-04-03T05:42:53.387Z,15
2017-04-03T05:45:16.982Z,20
2017-04-03T05:47:40.529Z,25
2017-04-03T05:50:03.920Z,30
2017-04-03T05:52:27.348Z,35
2017-04-03T05:54:50.915Z,40
2017-04-03T05:57:14.375Z,45
2017-04-03T05:59:37.909Z,50
2017-04-03T06:02:01.527Z,140
2017-04-03T06:04:24.939Z,160
2017-04-03T06:06:48.573Z,75
2017-04-03T06:09:12.221Z,110
2017-04-03T06:11:35.882Z,140
2017-04-03T06:13:59.553Z,190
2017-04-03T06:16:23.326Z,110
2017-04-03T06:18:47.137Z,215
2017-04-03T06:21:10.883Z,315
2017-04-03T06:23:34.733Z,320
2017-04-03T06:25:58.608Z,360
2017-04-03T06:30:23.978Z,425
2017-04-03T06:32:48.020Z,390
2017-04-03T06:35:12.107Z,275
2017-04-03T06:37:36.321Z,545
2017-04-03T06:40:00.518Z,555
2017-04-03T06:42:16.501Z,615
2017-04-03T06:44:32.557Z,390
2017-04-03T06:46:56.938Z,225
2017-04-03T06:49:21.480Z,225
2017-04-03T06:51:45.985Z,230
2017-04-03T06:56:21.472Z,245
2017-04-03T06:58:46.031Z,245
2017-04-03T07:01:10.333Z,255
2017-04-03T07:03:34.853Z,265
2017-04-03T07:05:59.421Z,285
2017-04-03T07:08:24.115Z,860
2017-04-03T07:10:40.384Z,930
2017-04-03T07:13:05.398Z,975
2017-04-03T07:15:30.603Z,950
2017-04-03T07:17:56.002Z,980
2017-04-03T07:20:22.377Z,985
2017-04-03T07:22:47.781Z,815
2017-04-03T07:25:13.463Z,480
2017-04-03T07:27:39.188Z,445
2017-04-03T07:30:06.014Z,445
2017-04-03T07:32:31.877Z,450
2017-04-03T07:34:58.173Z,450
2017-04-03T07:39:00.283Z,465
2017-04-03T07:43:11.648Z,485
2017-04-03T07:45:37.849Z,510
2017-04-03T07:48:04.011Z,555
2017-04-03T07:50:30.484Z,975
2017-04-03T07:52:56.616Z,1205
2017-04-03T07:55:22.977Z,1200
2017-04-03T07:59:51.723Z,580
2017-04-03T08:02:17.985Z,430
2017-04-03T08:06:29.445Z,400
2017-04-03T08:08:55.307Z,370
2017-04-03T08:11:20.997Z,340
2017-04-03T08:13:46.574Z,340
2017-04-03T08:16:11.988Z,340
2017-04-03T08:18:37.233Z,345
2017-04-03T08:21:02.431Z,355
2017-04-03T08:23:27.517Z,360
2017-04-03T08:25:54.548Z,365
2017-04-03T08:28:19.552Z,365
2017-04-03T08:30:44.839Z,370
2017-04-03T08:33:09.482Z,370
2017-04-03T08:35:34.592Z,380
2017-04-03T08:38:00.451Z,375
2017-04-03T08:44:29.469Z,380
2017-04-03T08:46:54.400Z,370
2017-04-03T08:49:19.284Z,370
2017-04-03T08:51:45.716Z,365
2017-04-03T08:54:10.874Z,365
2017-04-03T08:56:36.642Z,360
2017-04-03T08:59:01.497Z,350
2017-04-03T09:01:27.366Z,325
2017-04-03T09:03:52.253Z,305
2017-04-03T09:06:08.596Z,305
2017-04-03T09:08:33.595Z,315
2017-04-03T09:10:59.414Z,305
2017-04-03T09:13:24.898Z,300
2017-04-03T09:15:49.897Z,300
2017-04-03T09:18:15.340Z,290
2017-04-03T09:20:39.943Z,290
2017-04-03T09:23:05.566Z,290
2017-04-03T09:25:30.137Z,290
2017-04-03T09:27:54.735Z,290
2017-04-03T09:30:19.353Z,285
2017-04-03T09:32:44.047Z,280
2017-04-03T09:35:08.658Z,275
2017-04-03T09:37:33.236Z,270
2017-04-03T09:41:34.202Z,260
2017-04-03T09:44:00.180Z,255
2017-04-03T09:46:25.621Z,245
2017-04-03T09:48:42.125Z,240
2017-04-03T09:51:06.883Z,235
2017-04-03T09:53:38.284Z,230
2017-04-03T09:56:03.304Z,225
2017-04-03T09:58:29.351Z,220
2017-04-03T10:00:54.154Z,215
2017-04-03T10:03:18.921Z,210
2017-04-03T10:05:43.522Z,205
2017-04-03T10:08:08.216Z,200
2017-04-03T10:10:33.865Z,195
2017-04-03T10:12:58.545Z,190
2017-04-03T10:15:23.166Z,185
2017-04-03T10:17:47.762Z,185
2017-04-03T10:20:12.277Z,180
2017-04-03T10:22:36.971Z,180
2017-04-03T10:25:01.550Z,175
2017-04-03T10:27:26.120Z,175
2017-04-03T10:29:50.735Z,170
2017-04-03T10:32:06.928Z,170
2017-04-03T10:34:31.524Z,165
2017-04-03T10:36:56.115Z,165
2017-04-03T10:39:20.708Z,160
2017-04-03T10:41:45.258Z,150
2017-04-03T10:44:10.127Z,150
2017-04-03T10:46:34.646Z,155
2017-04-03T10:48:59.222Z,155
2017-04-03T10:51:23.861Z,150
2017-04-03T10:53:32.097Z,150
2017-04-03T10:55:57.339Z,145
2017-04-03T10:58:22.127Z,145
2017-04-03T11:03:09.710Z,135
2017-04-03T11:05:33.882Z,135
2017-04-03T11:07:58.501Z,135
2017-04-03T11:10:23.090Z,135
2017-04-03T11:12:47.652Z,135
2017-04-03T11:15:12.167Z,130
2017-04-03T11:17:37.304Z,130
2017-04-03T11:20:01.709Z,130
2017-04-03T11:22:26.386Z,130
2017-04-03T11:24:50.690Z,125
2017-04-03T11:27:15.091Z,125
2017-04-03T11:29:39.517Z,125
2017-04-03T11:32:04.091Z,125
2017-04-03T11:34:28.814Z,120
2017-04-03T11:38:30.338Z,115
2017-04-03T11:40:46.448Z,115
2017-04-03T11:43:10.996Z,115
2017-04-03T11:45:35.370Z,115
2017-04-03T11:47:59.791Z,100
2017-04-03T11:50:24.168Z,110
2017-04-03T11:52:49.579Z,110
2017-04-03T11:55:14.096Z,110
2017-04-03T11:57:38.668Z,115
2017-04-03T12:00:03.136Z,115
2017-04-03T12:02:29.055Z,105
2017-04-03T12:04:45.859Z,95
2017-04-03T12:07:10.441Z,90
2017-04-03T12:09:35.221Z,90
2017-04-03T12:11:59.706Z,85
2017-04-03T12:14:24.050Z,85
2017-04-03T12:16:49.671Z,90
2017-04-03T12:19:15.036Z,90
2017-04-03T12:21:40.543Z,90
2017-04-03T12:24:05.976Z,90
2017-04-03T12:26:31.487Z,95
2017-04-03T12:28:57.095Z,105
2017-04-03T12:31:22.092Z,110
2017-04-03T12:33:46.119Z,110
2017-04-03T12:36:10.528Z,110
2017-04-03T12:38:36.234Z,100
2017-04-03T12:41:00.810Z,100
2017-04-03T12:43:26.115Z,100
2017-04-03T12:45:42.189Z,95
2017-04-03T12:48:07.860Z,95
2017-04-03T12:50:33.369Z,95
2017-04-03T12:52:57.712Z,100
2017-04-03T12:55:22.286Z,100
2017-04-03T12:57:49.434Z,105
2017-04-03T13:00:14.376Z,105
2017-04-03T13:02:39.391Z,100
2017-04-03T13:05:04.235Z,95
2017-04-03T13:07:29.550Z,100
2017-04-03T13:09:56.908Z,100
2017-04-03T13:12:21.462Z,100
2017-04-03T13:14:45.983Z,100
2017-04-03T13:19:21.839Z,90
2017-04-03T13:21:46.347Z,85
2017-04-03T13:26:20.931Z,95
2017-04-03T13:28:45.405Z,95
2017-04-03T13:31:10.060Z,95
2017-04-03T13:33:34.495Z,90
2017-04-03T13:35:58.984Z,90
2017-04-03T13:38:23.490Z,80
2017-04-03T13:40:47.966Z,75
2017-04-03T13:43:12.327Z,80
2017-04-03T13:45:36.747Z,80
2017-04-03T13:48:01.257Z,75
2017-04-03T13:50:25.697Z,75
2017-04-03T13:52:49.892Z,80
2017-04-03T13:55:14.282Z,80
2017-04-03T13:57:39.595Z,80
2017-04-03T14:00:04.230Z,80
2017-04-03T14:02:28.480Z,75
2017-04-03T14:04:52.827Z,70
2017-04-03T14:07:17.150Z,70
2017-04-03T14:09:41.407Z,65
2017-04-03T14:12:05.655Z,65
2017-04-03T14:14:29.920Z,65
2017-04-03T14:16:54.199Z,60
2017-04-03T14:19:18.413Z,60
2017-04-03T14:21:42.551Z,60
2017-04-03T14:24:06.740Z,60
2017-04-03T14:26:30.964Z,60
2017-04-03T14:28:55.105Z,60
2017-04-03T14:31:19.245Z,65
2017-04-03T14:33:43.514Z,65
2017-04-03T14:36:07.535Z,65
2017-04-03T14:40:07.569Z,65
2017-04-03T14:42:31.767Z,65
2017-04-03T14:44:55.990Z,65
2017-04-03T14:47:20.109Z,65
2017-04-03T14:49:44.207Z,70
2017-04-03T14:52:08.365Z,70
2017-04-03T14:54:32.607Z,70
2017-04-03T14:56:56.775Z,70
2017-04-03T14:59:21.009Z,75
2017-04-03T15:01:45.183Z,70
2017-04-03T15:04:09.422Z,70
2017-04-03T15:06:33.651Z,70
2017-04-03T15:08:49.605Z,70
2017-04-03T15:11:13.827Z,70
2017-04-03T15:13:39.403Z,65
2017-04-03T15:16:03.998Z,65
2017-04-03T15:18:29.123Z,65
2017-04-03T15:20:53.691Z,65
2017-04-03T15:23:18.328Z,65
2017-04-03T15:25:42.786Z,65
2017-04-03T15:28:07.457Z,60
2017-04-03T15:30:33.102Z,60
2017-04-03T15:32:58.566Z,60
2017-04-03T15:35:14.480Z,60
2017-04-03T15:37:38.740Z,55
2017-04-03T15:40:03.033Z,55
2017-04-03T15:42:27.178Z,55
2017-04-03T15:44:51.440Z,50
2017-04-03T15:47:15.763Z,50
2017-04-03T15:49:39.827Z,50
2017-04-03T15:52:03.996Z,50
2017-04-03T15:54:28.236Z,50
2017-04-03T15:56:52.622Z,50
2017-04-03T15:59:18.769Z,45
2017-04-03T16:01:43.191Z,45
2017-04-03T16:04:07.466Z,45
2017-04-03T16:06:31.670Z,45
2017-04-03T16:08:58.015Z,45
2017-04-03T16:11:23.085Z,45
2017-04-03T16:13:47.249Z,45
2017-04-03T16:16:13.489Z,40
2017-04-03T16:18:38.790Z,40
2017-04-03T16:21:02.866Z,40
2017-04-03T16:23:27.036Z,40
2017-04-03T16:25:51.058Z,40
2017-04-03T16:28:15.343Z,40
2017-04-03T16:30:39.428Z,35
2017-04-03T16:33:03.672Z,35
2017-04-03T16:35:27.802Z,35
2017-04-03T16:37:51.879Z,35
2017-04-03T16:40:16.030Z,35
2017-04-03T16:42:40.186Z,30
2017-04-03T16:45:04.236Z,30
2017-04-03T16:47:28.303Z,30
2017-04-03T16:49:52.410Z,25
2017-04-03T16:52:25.417Z,25
2017-04-03T16:54:49.529Z,25
2017-04-03T16:57:13.537Z,25
2017-04-03T16:59:37.620Z,25
2017-04-03T17:02:01.730Z,20
2017-04-03T17:04:25.780Z,20
2017-04-03T17:06:49.768Z,20
2017-04-03T17:09:05.416Z,20
2017-04-03T17:11:29.554Z,20
2017-04-03T17:13:53.917Z,15
2017-04-03T17:18:45.826Z,15
2017-04-03T17:21:09.973Z,15
2017-04-03T17:23:34.065Z,15
2017-04-03T17:25:58.124Z,15
2017-04-03T17:28:22.213Z,10
2017-04-03T17:30:46.259Z,10
2017-04-03T17:33:10.358Z,10
2017-04-03T17:35:34.447Z,10
2017-04-03T17:37:58.562Z,5
2017-04-03T17:40:22.690Z,5
2017-04-03T17:42:46.553Z,5
2017-04-03T17:45:02.116Z,5
2017-04-03T17:47:26.163Z,5
2017-04-03T17:49:41.718Z,0
2017-04-03T17:54:15.565Z,0
2017-04-03T17:56:39.642Z,0
2017-04-03T17:59:03.612Z,0
2017-04-03T18:01:27.575Z,0
2017-04-03T18:03:51.567Z,0
2017-04-03T18:06:15.535Z,0
2017-04-03T18:08:39.527Z,0
2017-04-03T18:11:03.503Z,0
2017-04-03T18:15:04.385Z,0
2017-04-03T18:17:28.332Z,0
2017-04-03T18:19:52.210Z,0
2017-04-03T18:22:07.758Z,0
2017-04-03T18:24:31.810Z,0
2017-04-03T18:26:47.355Z,0
2017-04-03T18:29:11.402Z,0
2017-04-03T18:31:35.338Z,0
2017-04-03T18:33:59.236Z,0
2017-04-03T18:36:23.166Z,0
2017-04-03T18:38:47.064Z,0
2017-04-03T18:41:11.100Z,0
2017-04-03T18:43:34.937Z,0
2017-04-03T18:45:58.786Z,0
2017-04-03T18:48:22.794Z,0
2017-04-03T18:50:46.644Z,0
2017-04-03T18:53:10.597Z,0
2017-04-03T18:55:34.507Z,0
2017-04-03T18:57:58.578Z,0
2017-04-03T19:00:22.448Z,0
2017-04-03T19:02:46.340Z,0
2017-04-03T19:05:10.255Z,0
2017-04-03T19:07:38.118Z,0
2017-04-03T19:10:03.286Z,0
2017-04-03T19:12:27.269Z,0
2017-04-03T19:14:51.458Z,0
2017-04-03T19:17:15.574Z,0
2017-04-03T19:19:39.639Z,0
2017-04-03T19:22:03.575Z,0
2017-04-03T19:26:29.349Z,0
2017-04-03T19:28:53.180Z,0
2017-04-03T19:31:17.182Z,0
2017-04-03T19:33:40.984Z,0
2017-04-03T19:36:05.165Z,0
2017-04-03T19:38:28.979Z,0
2017-04-03T19:40:52.758Z,0
2017-04-03T19:43:16.576Z,0
2017-04-03T19:45:40.436Z,0
2017-04-03T19:48:04.363Z,0
2017-04-03T19:50:29.144Z,0
2017-04-03T19:52:53.027Z,0
2017-04-03T19:55:08.544Z,0
2017-04-03T19:57:34.012Z,0
2017-04-03T19:59:58.880Z,0
2017-04-03T20:02:22.684Z,0
2017-04-03T20:04:46.581Z,0
2017-04-03T20:07:10.435Z,0
2017-04-03T20:09:34.260Z,0
2017-04-03T20:11:58.089Z,0
2017-04-03T20:14:21.967Z,0
2017-04-03T20:16:45.748Z,0
2017-04-03T20:19:09.656Z,0
2017-04-03T20:21:33.455Z,0
2017-04-03T20:23:57.345Z,0
2017-04-03T20:28:24.502Z,0
2017-04-03T20:30:37.965Z,0
2017-04-03T20:33:01.954Z,0
2017-04-03T20:35:25.858Z,0
2017-04-03T20:37:49.735Z,0
2017-04-03T20:40:13.528Z,0
2017-04-03T20:42:38.714Z,0
2017-04-03T20:45:02.500Z,0
2017-04-03T20:49:36.583Z,0
2017-04-03T20:52:01.356Z,0
2017-04-03T20:54:24.079Z,0
2017-04-03T20:56:48.089Z,0
2017-04-03T20:59:11.790Z,0
2017-04-03T21:01:35.527Z,0
2017-04-03T21:04:00.296Z,0
2017-04-03T21:06:24.081Z,0
2017-04-03T21:08:39.454Z,0
2017-04-03T21:11:03.139Z,0
2017-04-03T21:13:26.999Z,0
2017-04-03T21:15:50.696Z,0
2017-04-03T21:18:14.537Z,0
2017-04-03T21:20:38.085Z,0
2017-04-03T21:23:01.793Z,0
2017-04-03T21:25:25.478Z,0
2017-04-03T21:27:49.145Z,0
2017-04-03T21:30:12.792Z,0
2017-04-03T21:32:36.573Z,0
2017-04-03T21:35:00.253Z,0
2017-04-03T21:37:24.025Z,0
2017-04-03T21:39:47.714Z,0
2017-04-03T21:42:11.343Z,0
2017-04-03T21:44:35.036Z,0
2017-04-03T21:46:58.690Z,0
2017-04-03T21:51:24.263Z,0
2017-04-03T21:53:48.103Z,0
2017-04-03T21:56:11.874Z,0
2017-04-03T21:58:35.490Z,0
2017-04-03T22:00:59.267Z,0
2017-04-03T22:03:23.137Z,0
2017-04-03T22:05:46.895Z,0
2017-04-03T22:08:10.926Z,0
2017-04-03T22:10:34.706Z,0
2017-04-03T22:12:58.316Z,0
2017-04-03T22:15:22.935Z,0
2017-04-03T22:17:46.555Z,0
2017-04-03T22:20:10.538Z,0
2017-04-03T22:22:34.119Z,0
2017-04-03T22:24:57.791Z,0
2017-04-03T22:27:21.460Z,0
2017-04-03T22:29:45.130Z,0
2017-04-03T22:32:08.806Z,0
2017-04-03T22:34:32.476Z,0
2017-04-03T22:36:56.154Z,0
2017-04-03T22:39:19.906Z,0
2017-04-03T22:41:43.504Z,0
2017-04-03T22:44:08.187Z,0
2017-04-03T22:46:31.862Z,0
2017-04-03T22:48:55.549Z,0
2017-04-03T22:51:19.213Z,0
2017-04-03T22:53:42.875Z,0
2017-04-03T22:56:06.575Z,0
2017-04-03T22:58:30.237Z,0
2017-04-03T23:00:53.939Z,0
2017-04-03T23:05:19.261Z,0
2017-04-03T23:07:42.897Z,0
2017-04-03T23:10:06.580Z,0
2017-04-03T23:12:30.235Z,0
2017-04-03T23:14:53.816Z,0
2017-04-03T23:17:17.497Z,0
2017-04-03T23:19:40.968Z,0
2017-04-03T23:22:04.628Z,0
2017-04-03T23:24:29.014Z,0
2017-04-03T23:26:52.536Z,0
2017-04-03T23:29:16.069Z,0
2017-04-03T23:31:39.618Z,0
2017-04-03T23:34:03.180Z,0
2017-04-03T23:36:26.733Z,0
2017-04-03T23:41:00.540Z,0
2017-04-03T23:43:24.151Z,0
2017-04-03T23:45:47.742Z,0
2017-04-03T23:48:11.444Z,0
2017-04-03T23:50:34.896Z,0
2017-04-03T23:52:58.520Z,0
2017-04-03T23:55:13.609Z,0
2017-04-03T23:57:37.306Z,0
